createdAt,value
2023-05-06T00:00:13.049Z,2.20
2023-05-06T00:02:42.125Z,2.33
2023-05-06T00:05:10.997Z,2.30
2023-05-06T00:07:39.551Z,2.80
2023-05-06T00:10:08.381Z,2.37
2023-05-06T00:12:36.700Z,2.17
2023-05-06T00:15:07.957Z,2.70
2023-05-06T00:17:36.458Z,2.47
2023-05-06T00:20:05.331Z,2.60
2023-05-06T00:22:33.727Z,2.93
2023-05-06T00:25:01.994Z,2.80
2023-05-06T00:27:30.172Z,2.80
2023-05-06T00:29:58.960Z,3.37
2023-05-06T00:32:28.628Z,2.63
2023-05-06T00:34:56.947Z,2.83
2023-05-06T00:37:25.116Z,2.80
2023-05-06T00:39:53.378Z,2.33
2023-05-06T00:42:22.746Z,3.47
2023-05-06T00:44:51.185Z,2.93
2023-05-06T00:47:20.079Z,3.20
2023-05-06T00:49:51.354Z,2.73
2023-05-06T00:52:21.329Z,2.83
2023-05-06T00:54:50.120Z,2.57
2023-05-06T00:57:18.512Z,2.60
2023-05-06T00:59:46.705Z,2.83
2023-05-06T01:02:14.954Z,3.33
2023-05-06T01:04:43.417Z,2.60
2023-05-06T01:07:23.633Z,2.90
2023-05-06T01:09:57.285Z,2.53
2023-05-06T01:12:32.398Z,2.70
2023-05-06T01:15:08.762Z,2.63
2023-05-06T01:17:41.327Z,2.30
2023-05-06T01:20:12.204Z,2.77
2023-05-06T01:22:42.256Z,2.80
2023-05-06T01:25:20.650Z,2.60
2023-05-06T01:27:49.092Z,2.47
2023-05-06T01:30:19.456Z,2.67
2023-05-06T01:32:59.781Z,2.53
2023-05-06T01:35:36.682Z,3.00
2023-05-06T01:38:15.986Z,3.23
2023-05-06T01:40:48.696Z,3.17
2023-05-06T01:43:18.330Z,2.57
2023-05-06T01:45:53.385Z,2.97
2023-05-06T01:48:23.762Z,2.97
2023-05-06T01:50:52.121Z,2.60
2023-05-06T01:53:20.285Z,2.60
2023-05-06T01:55:49.984Z,2.90
2023-05-06T01:58:18.151Z,2.30
2023-05-06T02:00:46.375Z,2.50
2023-05-06T02:03:15.031Z,3.07
2023-05-06T02:05:43.427Z,2.30
2023-05-06T02:08:11.558Z,2.87
2023-05-06T02:10:39.731Z,2.60
2023-05-06T02:13:09.493Z,2.60
2023-05-06T02:15:37.722Z,2.33
2023-05-06T02:18:06.068Z,2.60
2023-05-06T02:20:34.236Z,2.90
2023-05-06T02:23:02.442Z,2.63
2023-05-06T02:25:31.480Z,2.90
2023-05-06T02:27:59.741Z,2.77
2023-05-06T02:30:31.019Z,2.67
2023-05-06T02:32:59.406Z,2.60
2023-05-06T02:35:27.551Z,2.47
2023-05-06T02:37:55.733Z,2.50
2023-05-06T02:40:23.985Z,3.13
2023-05-06T02:42:52.123Z,3.33
2023-05-06T02:45:20.360Z,3.27
2023-05-06T02:47:49.962Z,3.03
2023-05-06T02:50:18.380Z,3.33
2023-05-06T02:52:46.560Z,2.57
2023-05-06T02:55:14.753Z,3.10
2023-05-06T02:57:43.060Z,2.77
2023-05-06T03:00:12.925Z,2.80
2023-05-06T03:02:41.131Z,2.90
2023-05-06T03:05:11.568Z,2.63
2023-05-06T03:07:40.058Z,2.80
2023-05-06T03:10:09.100Z,2.47
2023-05-06T03:12:37.317Z,3.03
2023-05-06T03:15:06.152Z,3.10
2023-05-06T03:17:34.385Z,3.20
2023-05-06T03:20:02.637Z,3.13
2023-05-06T03:22:32.216Z,2.43
2023-05-06T03:25:00.363Z,2.80
2023-05-06T03:27:28.646Z,2.80
2023-05-06T03:29:56.822Z,2.67
2023-05-06T03:32:25.052Z,2.80
2023-05-06T03:34:53.176Z,3.20
2023-05-06T03:37:21.390Z,3.20
2023-05-06T03:39:51.220Z,2.63
2023-05-06T03:42:19.450Z,2.53
2023-05-06T03:44:47.593Z,2.97
2023-05-06T03:47:16.083Z,2.97
2023-05-06T03:49:44.271Z,2.33
2023-05-06T03:52:13.144Z,2.70
2023-05-06T03:54:41.306Z,2.23
2023-05-06T03:57:10.941Z,3.00
2023-05-06T03:59:39.112Z,2.80
2023-05-06T04:02:07.514Z,2.07
2023-05-06T04:04:35.696Z,2.77
2023-05-06T04:07:03.972Z,2.37
2023-05-06T04:09:33.165Z,2.70
2023-05-06T04:12:02.256Z,2.90
2023-05-06T04:14:31.924Z,2.67
2023-05-06T04:17:00.186Z,2.60
2023-05-06T04:19:28.305Z,2.80
2023-05-06T04:21:56.608Z,2.90
2023-05-06T04:24:24.856Z,2.60
2023-05-06T04:26:53.018Z,2.20
2023-05-06T04:29:21.268Z,2.40
2023-05-06T04:31:51.668Z,2.40
2023-05-06T04:34:19.993Z,2.63
2023-05-06T04:36:49.203Z,2.97
2023-05-06T04:39:18.269Z,2.47
2023-05-06T04:41:46.487Z,2.47
2023-05-06T04:44:14.712Z,2.70
2023-05-06T04:46:42.932Z,2.70
2023-05-06T04:49:12.795Z,2.37
2023-05-06T04:51:40.985Z,3.20
2023-05-06T04:54:09.157Z,3.33
2023-05-06T04:56:37.372Z,3.33
2023-05-06T04:59:05.636Z,2.90
2023-05-06T05:01:33.917Z,3.27
2023-05-06T05:04:02.077Z,3.60
2023-05-06T05:06:32.298Z,3.80
2023-05-06T05:09:00.646Z,3.40
2023-05-06T05:11:28.840Z,3.67
2023-05-06T05:13:58.041Z,3.70
2023-05-06T05:16:27.320Z,3.83
2023-05-06T05:18:55.702Z,3.27
2023-05-06T05:21:24.053Z,3.57
2023-05-06T05:23:53.716Z,3.80
2023-05-06T05:26:22.060Z,3.43
2023-05-06T05:28:50.311Z,3.13
2023-05-06T05:31:19.702Z,3.40
2023-05-06T05:33:47.974Z,3.20
2023-05-06T05:36:17.029Z,3.17
2023-05-06T05:38:45.529Z,3.40
2023-05-06T05:41:17.298Z,3.97
2023-05-06T05:43:45.781Z,3.63
2023-05-06T05:46:14.327Z,3.40
2023-05-06T05:48:42.558Z,3.83
2023-05-06T05:51:11.878Z,3.33
2023-05-06T05:53:40.372Z,3.37
2023-05-06T05:56:09.420Z,3.70
2023-05-06T05:58:39.038Z,3.83
2023-05-06T06:01:07.174Z,3.63
2023-05-06T06:03:36.011Z,3.13
2023-05-06T06:06:04.633Z,3.67
2023-05-06T06:08:33.298Z,3.80
2023-05-06T06:11:02.169Z,3.53
2023-05-06T06:13:30.317Z,3.95
2023-05-06T06:16:00.933Z,3.80
2023-05-06T06:18:29.217Z,3.80
2023-05-06T06:20:57.544Z,3.92
2023-05-06T06:23:26.271Z,3.58
2023-05-06T06:25:54.572Z,3.80
2023-05-06T06:28:23.009Z,3.53
2023-05-06T06:30:51.317Z,3.97
2023-05-06T06:33:20.921Z,3.63
2023-05-06T06:35:49.057Z,4.28
2023-05-06T06:38:17.233Z,3.72
2023-05-06T06:40:45.959Z,3.70
2023-05-06T06:43:14.242Z,4.22
2023-05-06T06:45:42.875Z,3.65
2023-05-06T06:48:11.528Z,3.85
2023-05-06T06:50:41.152Z,3.80
2023-05-06T06:53:09.373Z,3.60
2023-05-06T06:55:37.567Z,3.38
2023-05-06T06:58:05.793Z,3.55
2023-05-06T07:00:33.998Z,3.63
2023-05-06T07:03:02.322Z,3.60
2023-05-06T07:05:30.675Z,3.70
2023-05-06T07:08:00.200Z,4.07
2023-05-06T07:10:28.402Z,3.90
2023-05-06T07:12:56.693Z,3.75
2023-05-06T07:15:25.252Z,4.28
2023-05-06T07:17:53.482Z,4.10
2023-05-06T07:20:21.700Z,5.55
2023-05-06T07:22:49.977Z,4.15
2023-05-06T07:25:19.751Z,3.17
2023-05-06T07:27:48.099Z,3.50
2023-05-06T07:30:17.217Z,3.17
2023-05-06T07:32:45.780Z,3.05
2023-05-06T07:35:14.163Z,3.65
2023-05-06T07:37:42.553Z,3.42
2023-05-06T07:40:11.362Z,3.72
2023-05-06T07:42:42.977Z,3.70
2023-05-06T07:45:12.588Z,3.80
2023-05-06T07:47:41.329Z,3.13
2023-05-06T07:50:10.754Z,3.08
2023-05-06T07:52:39.232Z,3.13
2023-05-06T07:55:10.545Z,3.30
2023-05-06T07:57:40.951Z,3.75
2023-05-06T08:00:10.956Z,3.60
2023-05-06T08:02:44.653Z,3.35
2023-05-06T08:05:13.536Z,3.35
2023-05-06T08:07:42.628Z,3.97
2023-05-06T08:10:11.746Z,3.17
2023-05-06T08:12:41.777Z,2.85
2023-05-06T08:15:37.066Z,2.78
2023-05-06T08:18:21.047Z,3.22
2023-05-06T08:20:51.332Z,3.33
2023-05-06T08:23:19.579Z,3.72
2023-05-06T08:25:47.859Z,3.20
2023-05-06T08:28:17.803Z,3.25
2023-05-06T08:30:48.560Z,3.00
2023-05-06T08:33:16.874Z,3.40
2023-05-06T08:35:45.096Z,3.10
2023-05-06T08:38:13.269Z,2.75
2023-05-06T08:40:44.536Z,3.28
2023-05-06T08:43:20.585Z,2.72
2023-05-06T08:45:50.634Z,2.95
2023-05-06T08:48:19.460Z,3.40
2023-05-06T08:50:50.295Z,2.88
2023-05-06T08:53:18.521Z,3.15
2023-05-06T08:55:47.982Z,2.90
2023-05-06T08:58:18.433Z,2.67
2023-05-06T09:00:48.640Z,2.80
2023-05-06T09:03:16.960Z,2.92
2023-05-06T09:05:45.247Z,3.25
2023-05-06T09:08:14.822Z,2.78
2023-05-06T09:10:45.057Z,2.65
2023-05-06T09:13:14.374Z,2.80
2023-05-06T09:15:44.985Z,2.22
2023-05-06T09:18:13.356Z,2.30
2023-05-06T09:20:43.087Z,2.78
2023-05-06T09:23:12.752Z,2.90
2023-05-06T09:25:41.046Z,2.33
2023-05-06T09:28:11.065Z,1.88
2023-05-06T09:30:41.747Z,2.20
2023-05-06T09:33:12.660Z,2.63
2023-05-06T09:35:42.887Z,2.30
2023-05-06T09:38:11.408Z,2.25
2023-05-06T09:40:40.268Z,2.50
2023-05-06T09:43:09.010Z,1.90
2023-05-06T09:45:37.740Z,1.40
2023-05-06T09:48:06.319Z,1.05
2023-05-06T09:50:37.901Z,2.03
2023-05-06T09:53:06.951Z,1.90
2023-05-06T09:55:35.990Z,1.88
2023-05-06T09:58:04.887Z,1.30
2023-05-06T10:00:33.414Z,1.52
2023-05-06T10:03:02.297Z,1.50
2023-05-06T10:05:31.890Z,1.40
2023-05-06T10:08:04.451Z,1.77
2023-05-06T10:10:35.165Z,2.00
2023-05-06T10:13:04.666Z,1.73
2023-05-06T10:15:33.903Z,1.52
2023-05-06T10:18:02.976Z,1.95
2023-05-06T10:20:32.786Z,1.83
2023-05-06T10:23:11.088Z,1.30
2023-05-06T10:25:41.115Z,1.88
2023-05-06T10:28:16.045Z,1.67
2023-05-06T10:30:59.492Z,1.40
2023-05-06T10:33:29.690Z,1.38
2023-05-06T10:36:09.189Z,1.48
2023-05-06T10:38:43.058Z,1.48
2023-05-06T10:41:11.751Z,0.88
2023-05-06T10:43:42.591Z,1.25
2023-05-06T10:46:12.688Z,1.85
2023-05-06T10:49:01.872Z,1.40
2023-05-06T10:51:30.133Z,1.45
2023-05-06T10:54:04.776Z,1.33
2023-05-06T10:56:34.311Z,1.17
2023-05-06T10:59:09.105Z,1.63
2023-05-06T11:01:38.669Z,1.30
2023-05-06T11:04:09.715Z,1.15
2023-05-06T11:06:41.218Z,1.38
2023-05-06T11:09:19.113Z,1.30
2023-05-06T11:12:01.937Z,1.80
2023-05-06T11:14:31.680Z,1.40
2023-05-06T11:17:01.732Z,1.50
2023-05-06T11:19:31.706Z,1.65
2023-05-06T11:22:01.337Z,1.70
2023-05-06T11:24:32.669Z,1.10
2023-05-06T11:27:01.818Z,1.20
2023-05-06T11:29:30.015Z,1.67
2023-05-06T11:31:58.632Z,1.20
2023-05-06T11:34:28.466Z,1.17
2023-05-06T11:37:00.847Z,1.45
2023-05-06T11:39:33.333Z,1.00
2023-05-06T11:42:07.223Z,1.40
2023-05-06T11:44:37.562Z,1.00
2023-05-06T11:47:07.699Z,1.38
2023-05-06T11:49:39.736Z,1.80
2023-05-06T11:52:09.657Z,1.10
2023-05-06T11:54:41.222Z,1.30
2023-05-06T11:57:09.901Z,1.20
2023-05-06T11:59:39.686Z,1.20
2023-05-06T12:02:09.147Z,1.40
2023-05-06T12:04:42.349Z,1.45
2023-05-06T12:07:12.169Z,1.42
2023-05-06T12:09:44.810Z,1.33
2023-05-06T12:12:16.547Z,1.08
2023-05-06T12:14:46.436Z,1.20
2023-05-06T12:17:15.628Z,1.30
2023-05-06T12:19:43.905Z,0.73
2023-05-06T12:22:22.583Z,0.95
2023-05-06T12:24:52.196Z,0.90
2023-05-06T12:27:31.747Z,1.35
2023-05-06T12:30:00.705Z,1.48
2023-05-06T12:32:28.944Z,1.27
2023-05-06T12:34:57.763Z,1.10
2023-05-06T12:37:27.310Z,1.30
2023-05-06T12:39:59.242Z,1.15
2023-05-06T12:42:27.868Z,1.27
2023-05-06T12:44:56.223Z,1.35
2023-05-06T12:47:26.270Z,1.45
2023-05-06T12:49:58.084Z,0.98
2023-05-06T12:52:28.801Z,1.40
2023-05-06T12:54:58.929Z,1.60
2023-05-06T12:57:27.160Z,1.13
2023-05-06T12:59:56.501Z,1.45
2023-05-06T13:02:24.964Z,1.20
2023-05-06T13:04:53.180Z,1.80
2023-05-06T13:07:22.446Z,1.55
2023-05-06T13:09:50.785Z,1.50
2023-05-06T13:12:20.563Z,1.27
2023-05-06T13:14:48.826Z,1.58
2023-05-06T13:17:17.083Z,1.50
2023-05-06T13:19:45.325Z,1.70
2023-05-06T13:22:13.456Z,1.10
2023-05-06T13:24:41.666Z,1.52
2023-05-06T13:27:09.987Z,1.45
2023-05-06T13:29:39.862Z,1.58
2023-05-06T13:32:09.213Z,1.40
2023-05-06T13:34:37.670Z,1.23
2023-05-06T13:37:06.354Z,1.65
2023-05-06T13:39:34.842Z,1.20
2023-05-06T13:42:06.744Z,1.67
2023-05-06T13:44:36.504Z,1.38
2023-05-06T13:47:06.445Z,1.52
2023-05-06T13:49:35.328Z,1.92
2023-05-06T13:52:04.706Z,1.52
2023-05-06T13:54:34.528Z,1.50
2023-05-06T13:57:02.931Z,1.23
2023-05-06T13:59:31.230Z,1.35
2023-05-06T14:01:59.912Z,1.67
2023-05-06T14:04:29.579Z,1.08
2023-05-06T14:06:57.711Z,1.73
2023-05-06T14:09:25.943Z,1.38
2023-05-06T14:11:54.035Z,1.17
2023-05-06T14:14:22.238Z,0.90
2023-05-06T14:16:54.645Z,1.33
2023-05-06T14:19:23.512Z,0.80
2023-05-06T14:21:53.180Z,0.77
2023-05-06T14:24:21.261Z,1.00
2023-05-06T14:26:49.565Z,0.80
2023-05-06T14:29:17.887Z,0.80
2023-05-06T14:31:46.492Z,0.90
2023-05-06T14:34:14.687Z,0.85
2023-05-06T14:36:43.828Z,1.10
2023-05-06T14:39:14.240Z,1.10
2023-05-06T14:41:42.430Z,1.02
2023-05-06T14:44:10.681Z,0.70
2023-05-06T14:46:39.259Z,0.70
2023-05-06T14:49:07.552Z,1.00
2023-05-06T14:51:35.844Z,0.77
2023-05-06T14:54:04.323Z,1.10
2023-05-06T14:56:34.359Z,1.23
2023-05-06T14:59:04.244Z,1.77
2023-05-06T15:01:33.859Z,1.15
2023-05-06T15:04:02.215Z,0.88
2023-05-06T15:06:30.469Z,0.85
2023-05-06T15:08:58.658Z,1.10
2023-05-06T15:11:26.955Z,0.85
2023-05-06T15:13:56.639Z,0.77
2023-05-06T15:16:24.972Z,0.90
2023-05-06T15:18:53.229Z,0.98
2023-05-06T15:21:21.422Z,0.60
2023-05-06T15:23:51.048Z,0.70
2023-05-06T15:26:19.391Z,0.85
2023-05-06T15:28:47.560Z,0.75
2023-05-06T15:31:17.367Z,0.50
2023-05-06T15:33:45.667Z,0.40
2023-05-06T15:36:13.943Z,0.70
2023-05-06T15:39:00.416Z,0.70
2023-05-06T15:41:30.490Z,1.45
2023-05-06T15:43:59.512Z,0.80
2023-05-06T15:46:29.624Z,1.05
2023-05-06T15:49:17.871Z,0.75
2023-05-06T15:51:46.564Z,1.05
2023-05-06T15:54:18.407Z,0.93
2023-05-06T15:56:47.572Z,1.33
2023-05-06T15:59:16.272Z,1.10
2023-05-06T16:04:17.548Z,1.65
2023-05-06T16:06:46.079Z,1.50
2023-05-06T16:09:14.284Z,1.88
2023-05-06T16:11:42.555Z,1.42
2023-05-06T16:14:10.742Z,2.17
2023-05-06T16:16:39.057Z,1.75
2023-05-06T16:19:08.759Z,1.90
2023-05-06T16:21:37.096Z,2.30
2023-05-06T16:24:05.519Z,2.40
2023-05-06T16:26:33.885Z,2.42
2023-05-06T16:29:02.208Z,3.28
2023-05-06T16:31:30.783Z,2.20
2023-05-06T16:33:59.318Z,2.90
2023-05-06T16:36:29.264Z,1.83
2023-05-06T16:38:57.815Z,2.28
2023-05-06T16:41:26.195Z,1.67
2023-05-06T16:43:54.490Z,2.25
2023-05-06T16:46:24.421Z,2.15
2023-05-06T16:48:54.016Z,1.70
2023-05-06T16:51:22.518Z,2.30
2023-05-06T16:53:52.354Z,1.80
2023-05-06T16:56:20.973Z,2.08
2023-05-06T16:58:49.248Z,1.98
2023-05-06T17:01:17.721Z,2.22
2023-05-06T17:03:46.214Z,1.67
2023-05-06T17:06:14.790Z,2.08
2023-05-06T17:08:43.305Z,2.13
2023-05-06T17:11:13.452Z,1.83
2023-05-06T17:13:41.784Z,2.80
2023-05-06T17:16:10.038Z,2.40
2023-05-06T17:18:38.217Z,1.85
2023-05-06T17:21:09.009Z,2.08
2023-05-06T17:23:37.388Z,1.85
2023-05-06T17:26:10.053Z,1.73
2023-05-06T17:28:40.188Z,1.88
2023-05-06T17:31:08.740Z,1.73
2023-05-06T17:33:36.940Z,1.42
2023-05-06T17:36:05.728Z,1.63
2023-05-06T17:38:34.056Z,1.63
2023-05-06T17:41:02.261Z,1.33
2023-05-06T17:43:30.410Z,1.73
2023-05-06T17:46:00.065Z,1.40
2023-05-06T17:48:28.337Z,1.70
2023-05-06T17:51:01.353Z,1.55
2023-05-06T17:53:29.606Z,1.60
2023-05-06T17:55:57.876Z,1.70
2023-05-06T17:58:26.088Z,1.77
2023-05-06T18:01:14.100Z,1.75
2023-05-06T18:03:43.958Z,1.45
2023-05-06T18:06:13.113Z,1.58
2023-05-06T18:08:41.254Z,1.60
2023-05-06T18:11:09.449Z,2.05
2023-05-06T18:13:37.822Z,1.80
2023-05-06T18:16:06.667Z,2.13
2023-05-06T18:18:36.261Z,1.90
2023-05-06T18:21:04.451Z,1.98
2023-05-06T18:23:33.012Z,1.75
2023-05-06T18:26:01.235Z,1.65
2023-05-06T18:28:29.690Z,1.60
2023-05-06T18:30:57.920Z,1.85
2023-05-06T18:33:26.119Z,1.27
2023-05-06T18:35:55.649Z,1.50
2023-05-06T18:38:25.453Z,1.48
2023-05-06T18:40:54.080Z,1.60
2023-05-06T18:43:22.317Z,1.48
2023-05-06T18:45:50.555Z,1.15
2023-05-06T18:48:19.372Z,1.50
2023-05-06T18:50:47.730Z,1.05
2023-05-06T18:53:17.964Z,1.30
2023-05-06T18:55:46.156Z,1.23
2023-05-06T18:58:14.352Z,1.20
2023-05-06T19:00:42.516Z,1.70
2023-05-06T19:03:11.237Z,1.52
2023-05-06T19:05:39.357Z,1.60
2023-05-06T19:08:09.381Z,1.40
2023-05-06T19:10:38.973Z,1.88
2023-05-06T19:13:07.569Z,1.27
2023-05-06T19:15:35.919Z,1.33
2023-05-06T19:18:04.210Z,1.77
2023-05-06T19:20:32.596Z,1.58
2023-05-06T19:23:01.277Z,1.70
2023-05-06T19:25:29.442Z,2.10
2023-05-06T19:27:59.377Z,1.67
2023-05-06T19:30:29.545Z,1.33
2023-05-06T19:32:59.446Z,1.55
2023-05-06T19:35:27.805Z,1.27
2023-05-06T19:37:56.215Z,1.52
2023-05-06T19:40:24.440Z,1.35
2023-05-06T19:42:53.810Z,1.45
2023-05-06T19:45:23.471Z,1.42
2023-05-06T19:47:54.357Z,1.70
2023-05-06T19:50:35.186Z,1.70
2023-05-06T19:53:05.877Z,1.80
2023-05-06T19:55:34.027Z,1.73
2023-05-06T19:58:02.417Z,1.60
2023-05-06T20:00:31.981Z,1.50
2023-05-06T20:03:01.288Z,1.70
2023-05-06T20:05:31.548Z,1.55
2023-05-06T20:08:22.158Z,1.67
2023-05-06T20:11:04.022Z,1.70
2023-05-06T20:13:32.284Z,1.60
2023-05-06T20:16:02.135Z,1.52
2023-05-06T20:18:32.022Z,2.03
2023-05-06T20:21:00.330Z,1.48
2023-05-06T20:23:28.476Z,1.30
2023-05-06T20:25:56.729Z,1.55
2023-05-06T20:28:28.998Z,1.27
2023-05-06T20:30:59.919Z,1.48
2023-05-06T20:33:29.693Z,1.38
2023-05-06T20:35:58.067Z,1.80
2023-05-06T20:38:27.292Z,1.80
2023-05-06T20:40:55.703Z,2.08
2023-05-06T20:43:23.889Z,1.75
2023-05-06T20:45:52.096Z,1.58
2023-05-06T20:48:20.239Z,1.55
2023-05-06T20:50:50.310Z,1.50
2023-05-06T20:53:18.461Z,1.60
2023-05-06T20:55:46.655Z,1.50
2023-05-06T20:58:14.815Z,1.80
2023-05-06T21:00:43.242Z,1.58
2023-05-06T21:03:12.115Z,1.80
2023-05-06T21:05:40.437Z,1.60
2023-05-06T21:08:10.090Z,1.52
2023-05-06T21:10:38.293Z,1.60
2023-05-06T21:13:07.056Z,2.22
2023-05-06T21:15:35.484Z,1.55
2023-05-06T21:18:03.811Z,1.63
2023-05-06T21:20:32.133Z,1.70
2023-05-06T21:23:00.398Z,1.60
2023-05-06T21:25:30.263Z,1.55
2023-05-06T21:28:03.425Z,1.88
2023-05-06T21:30:31.879Z,1.50
2023-05-06T21:33:00.346Z,1.73
2023-05-06T21:35:28.834Z,1.90
2023-05-06T21:37:57.077Z,1.40
2023-05-06T21:40:25.538Z,1.50
2023-05-06T21:42:55.467Z,1.63
2023-05-06T21:45:23.682Z,1.45
2023-05-06T21:47:51.972Z,1.45
2023-05-06T21:50:20.280Z,1.45
2023-05-06T21:52:48.554Z,1.48
2023-05-06T21:55:17.141Z,2.22
2023-05-06T21:57:46.283Z,1.67
2023-05-06T22:00:19.839Z,1.50
2023-05-06T22:02:48.134Z,1.30
2023-05-06T22:05:16.419Z,1.70
2023-05-06T22:07:44.575Z,1.77
2023-05-06T22:10:13.649Z,1.70
2023-05-06T22:12:41.908Z,1.63
2023-05-06T22:15:11.136Z,1.67
2023-05-06T22:17:41.031Z,1.65
2023-05-06T22:20:11.735Z,1.58
2023-05-06T22:22:40.138Z,1.77
2023-05-06T22:25:09.338Z,1.30
2023-05-06T22:27:37.839Z,1.38
2023-05-06T22:30:08.161Z,1.60
2023-05-06T22:32:36.351Z,1.20
2023-05-06T22:35:06.694Z,1.48
2023-05-06T22:37:34.873Z,1.80
2023-05-06T22:40:03.378Z,1.90
2023-05-06T22:42:31.559Z,2.08
2023-05-06T22:44:59.771Z,2.13
2023-05-06T22:47:28.045Z,2.15
2023-05-06T22:49:56.253Z,1.67
2023-05-06T22:52:25.915Z,1.40
2023-05-06T22:54:54.201Z,1.88
2023-05-06T22:57:23.310Z,1.38
2023-05-06T22:59:51.572Z,1.17
2023-05-06T23:02:19.810Z,1.67
2023-05-06T23:04:48.019Z,1.65
2023-05-06T23:07:16.781Z,1.95
2023-05-06T23:09:46.343Z,1.85
2023-05-06T23:12:14.527Z,1.67
2023-05-06T23:14:42.868Z,1.90
2023-05-06T23:17:11.068Z,2.20
2023-05-06T23:19:39.216Z,1.50
2023-05-06T23:22:07.458Z,1.60
2023-05-06T23:24:35.704Z,2.10
2023-05-06T23:27:05.431Z,1.88
2023-05-06T23:29:33.554Z,1.93
2023-05-06T23:32:01.759Z,1.93
2023-05-06T23:34:29.948Z,1.70
2023-05-06T23:36:58.032Z,2.07
2023-05-06T23:39:26.221Z,2.10
2023-05-06T23:41:54.366Z,1.80
2023-05-06T23:44:24.223Z,2.13
2023-05-06T23:46:52.586Z,2.20
2023-05-06T23:49:21.096Z,1.97
2023-05-06T23:51:49.246Z,2.03
2023-05-06T23:54:17.444Z,2.30
2023-05-06T23:56:45.696Z,2.15
2023-05-06T23:59:13.907Z,2.13
